sensor_id;sensor_type;location;lat;lon;timestamp;P1;durP1;ratioP1;P2;durP2;ratioP2
31390;SDS011;18022;45.492;11.548;2022-10-31T00:00:28;18.02;;;11.65;;
31390;SDS011;18022;45.492;11.548;2022-10-31T00:02:54;18.83;;;12.38;;
31390;SDS011;18022;45.492;11.548;2022-10-31T00:05:20;24.65;;;14.40;;
31390;SDS011;18022;45.492;11.548;2022-10-31T00:07:46;24.65;;;14.68;;
31390;SDS011;18022;45.492;11.548;2022-10-31T00:10:11;22.38;;;14.05;;
31390;SDS011;18022;45.492;11.548;2022-10-31T00:12:37;19.85;;;13.60;;
31390;SDS011;18022;45.492;11.548;2022-10-31T00:15:03;21.55;;;14.57;;
31390;SDS011;18022;45.492;11.548;2022-10-31T00:17:29;16.67;;;12.85;;
31390;SDS011;18022;45.492;11.548;2022-10-31T00:19:54;10.90;;;9.80;;
31390;SDS011;18022;45.492;11.548;2022-10-31T00:22:20;8.43;;;7.50;;
31390;SDS011;18022;45.492;11.548;2022-10-31T00:24:46;9.15;;;8.25;;
31390;SDS011;18022;45.492;11.548;2022-10-31T00:27:11;17.20;;;12.52;;
31390;SDS011;18022;45.492;11.548;2022-10-31T00:29:37;18.58;;;13.43;;
31390;SDS011;18022;45.492;11.548;2022-10-31T00:32:03;15.52;;;11.23;;
31390;SDS011;18022;45.492;11.548;2022-10-31T00:34:28;12.02;;;9.68;;
31390;SDS011;18022;45.492;11.548;2022-10-31T00:36:54;9.75;;;8.75;;
31390;SDS011;18022;45.492;11.548;2022-10-31T00:39:20;8.13;;;7.32;;
31390;SDS011;18022;45.492;11.548;2022-10-31T00:41:45;12.95;;;10.13;;
31390;SDS011;18022;45.492;11.548;2022-10-31T00:44:11;15.02;;;11.15;;
31390;SDS011;18022;45.492;11.548;2022-10-31T00:46:37;9.23;;;8.20;;
31390;SDS011;18022;45.492;11.548;2022-10-31T00:49:02;6.82;;;6.22;;
31390;SDS011;18022;45.492;11.548;2022-10-31T00:51:28;7.55;;;6.78;;
31390;SDS011;18022;45.492;11.548;2022-10-31T00:53:53;10.38;;;8.25;;
31390;SDS011;18022;45.492;11.548;2022-10-31T00:56:19;10.50;;;8.13;;
31390;SDS011;18022;45.492;11.548;2022-10-31T00:58:45;7.03;;;6.50;;
31390;SDS011;18022;45.492;11.548;2022-10-31T01:01:10;6.20;;;5.60;;
31390;SDS011;18022;45.492;11.548;2022-10-31T01:03:36;7.32;;;5.72;;
31390;SDS011;18022;45.492;11.548;2022-10-31T01:06:10;8.52;;;6.82;;
31390;SDS011;18022;45.492;11.548;2022-10-31T01:08:37;9.57;;;7.60;;
31390;SDS011;18022;45.492;11.548;2022-10-31T01:11:05;10.73;;;8.30;;
31390;SDS011;18022;45.492;11.548;2022-10-31T01:13:31;8.48;;;7.70;;
31390;SDS011;18022;45.492;11.548;2022-10-31T01:15:57;8.32;;;7.53;;
31390;SDS011;18022;45.492;11.548;2022-10-31T01:18:24;5.97;;;5.50;;
31390;SDS011;18022;45.492;11.548;2022-10-31T01:21:24;5.60;;;5.20;;
31390;SDS011;18022;45.492;11.548;2022-10-31T01:23:46;6.22;;;5.72;;
31390;SDS011;18022;45.492;11.548;2022-10-31T01:26:17;6.38;;;5.78;;
31390;SDS011;18022;45.492;11.548;2022-10-31T01:28:49;11.80;;;7.53;;
31390;SDS011;18022;45.492;11.548;2022-10-31T01:31:16;18.15;;;11.63;;
31390;SDS011;18022;45.492;11.548;2022-10-31T01:33:43;28.85;;;15.07;;
31390;SDS011;18022;45.492;11.548;2022-10-31T01:38:37;14.85;;;11.30;;
31390;SDS011;18022;45.492;11.548;2022-10-31T01:41:03;13.60;;;9.73;;
31390;SDS011;18022;45.492;11.548;2022-10-31T01:46:39;11.80;;;9.10;;
31390;SDS011;18022;45.492;11.548;2022-10-31T01:49:09;16.92;;;8.43;;
31390;SDS011;18022;45.492;11.548;2022-10-31T01:54:48;12.85;;;9.02;;
31390;SDS011;18022;45.492;11.548;2022-10-31T01:57:28;12.48;;;9.80;;
31390;SDS011;18022;45.492;11.548;2022-10-31T01:59:57;16.33;;;10.50;;
31390;SDS011;18022;45.492;11.548;2022-10-31T02:02:25;13.77;;;10.73;;
31390;SDS011;18022;45.492;11.548;2022-10-31T02:04:55;12.40;;;9.20;;
31390;SDS011;18022;45.492;11.548;2022-10-31T02:07:25;14.77;;;7.13;;
31390;SDS011;18022;45.492;11.548;2022-10-31T02:09:56;7.50;;;6.80;;
31390;SDS011;18022;45.492;11.548;2022-10-31T02:12:22;6.78;;;6.15;;
31390;SDS011;18022;45.492;11.548;2022-10-31T02:14:49;6.78;;;6.10;;
31390;SDS011;18022;45.492;11.548;2022-10-31T02:17:15;11.25;;;8.43;;
31390;SDS011;18022;45.492;11.548;2022-10-31T02:48:19;6.25;;;5.63;;
31390;SDS011;18022;45.492;11.548;2022-10-31T02:50:52;9.63;;;7.32;;
31390;SDS011;18022;45.492;11.548;2022-10-31T02:53:22;11.90;;;9.23;;
31390;SDS011;18022;45.492;11.548;2022-10-31T02:58:42;25.20;;;13.88;;
31390;SDS011;18022;45.492;11.548;2022-10-31T03:09:46;14.68;;;11.43;;
31390;SDS011;18022;45.492;11.548;2022-10-31T03:12:16;11.95;;;10.10;;
31390;SDS011;18022;45.492;11.548;2022-10-31T03:15:02;12.52;;;9.98;;
31390;SDS011;18022;45.492;11.548;2022-10-31T03:17:50;14.10;;;10.55;;
31390;SDS011;18022;45.492;11.548;2022-10-31T03:20:39;12.85;;;10.75;;
31390;SDS011;18022;45.492;11.548;2022-10-31T03:23:10;12.43;;;10.65;;
31390;SDS011;18022;45.492;11.548;2022-10-31T03:25:40;14.85;;;12.73;;
31390;SDS011;18022;45.492;11.548;2022-10-31T03:28:07;12.67;;;11.37;;
31390;SDS011;18022;45.492;11.548;2022-10-31T03:30:35;12.43;;;11.00;;
31390;SDS011;18022;45.492;11.548;2022-10-31T03:33:04;12.57;;;10.40;;
31390;SDS011;18022;45.492;11.548;2022-10-31T03:35:34;15.20;;;11.05;;
31390;SDS011;18022;45.492;11.548;2022-10-31T03:38:01;19.73;;;12.80;;
31390;SDS011;18022;45.492;11.548;2022-10-31T03:40:28;18.97;;;13.30;;
31390;SDS011;18022;45.492;11.548;2022-10-31T03:42:57;15.98;;;12.15;;
31390;SDS011;18022;45.492;11.548;2022-10-31T03:45:27;15.23;;;11.57;;
31390;SDS011;18022;45.492;11.548;2022-10-31T03:47:56;13.63;;;10.10;;
31390;SDS011;18022;45.492;11.548;2022-10-31T03:50:28;28.42;;;11.55;;
31390;SDS011;18022;45.492;11.548;2022-10-31T03:53:05;14.27;;;10.63;;
31390;SDS011;18022;45.492;11.548;2022-10-31T03:58:03;12.40;;;11.10;;
31390;SDS011;18022;45.492;11.548;2022-10-31T04:00:33;11.20;;;9.98;;
31390;SDS011;18022;45.492;11.548;2022-10-31T04:05:30;10.88;;;9.57;;
31390;SDS011;18022;45.492;11.548;2022-10-31T04:07:56;14.00;;;10.40;;
31390;SDS011;18022;45.492;11.548;2022-10-31T04:10:24;14.43;;;11.48;;
31390;SDS011;18022;45.492;11.548;2022-10-31T04:15:23;24.05;;;14.63;;
31390;SDS011;18022;45.492;11.548;2022-10-31T04:17:50;21.80;;;14.45;;
31390;SDS011;18022;45.492;11.548;2022-10-31T04:20:28;17.35;;;11.80;;
31390;SDS011;18022;45.492;11.548;2022-10-31T04:23:05;12.75;;;9.73;;
31390;SDS011;18022;45.492;11.548;2022-10-31T04:25:43;10.63;;;9.27;;
31390;SDS011;18022;45.492;11.548;2022-10-31T04:28:09;12.43;;;9.30;;
31390;SDS011;18022;45.492;11.548;2022-10-31T04:30:34;10.18;;;9.18;;
31390;SDS011;18022;45.492;11.548;2022-10-31T04:33:00;8.85;;;8.05;;
31390;SDS011;18022;45.492;11.548;2022-10-31T04:35:26;9.02;;;8.23;;
31390;SDS011;18022;45.492;11.548;2022-10-31T04:37:51;10.40;;;9.40;;
31390;SDS011;18022;45.492;11.548;2022-10-31T04:40:17;10.55;;;9.50;;
31390;SDS011;18022;45.492;11.548;2022-10-31T04:42:42;9.68;;;8.68;;
31390;SDS011;18022;45.492;11.548;2022-10-31T04:45:08;10.00;;;9.10;;
31390;SDS011;18022;45.492;11.548;2022-10-31T04:47:34;13.55;;;11.02;;
31390;SDS011;18022;45.492;11.548;2022-10-31T04:50:00;15.90;;;11.52;;
31390;SDS011;18022;45.492;11.548;2022-10-31T04:52:26;18.00;;;14.18;;
31390;SDS011;18022;45.492;11.548;2022-10-31T04:54:52;19.63;;;14.98;;
31390;SDS011;18022;45.492;11.548;2022-10-31T04:57:17;27.20;;;15.40;;
31390;SDS011;18022;45.492;11.548;2022-10-31T04:59:43;22.23;;;14.98;;
31390;SDS011;18022;45.492;11.548;2022-10-31T05:02:09;19.60;;;14.07;;
31390;SDS011;18022;45.492;11.548;2022-10-31T05:04:34;20.67;;;13.13;;
31390;SDS011;18022;45.492;11.548;2022-10-31T05:07:00;15.07;;;12.52;;
31390;SDS011;18022;45.492;11.548;2022-10-31T05:09:26;15.35;;;11.73;;
31390;SDS011;18022;45.492;11.548;2022-10-31T05:11:51;19.30;;;13.23;;
31390;SDS011;18022;45.492;11.548;2022-10-31T05:14:17;20.85;;;11.98;;
31390;SDS011;18022;45.492;11.548;2022-10-31T05:16:43;17.13;;;12.30;;
31390;SDS011;18022;45.492;11.548;2022-10-31T05:19:08;15.73;;;11.80;;
31390;SDS011;18022;45.492;11.548;2022-10-31T05:21:34;17.05;;;13.10;;
31390;SDS011;18022;45.492;11.548;2022-10-31T05:24:00;21.63;;;14.73;;
31390;SDS011;18022;45.492;11.548;2022-10-31T05:26:25;17.27;;;13.32;;
31390;SDS011;18022;45.492;11.548;2022-10-31T05:28:51;17.02;;;12.38;;
31390;SDS011;18022;45.492;11.548;2022-10-31T05:31:16;53.70;;;14.55;;
31390;SDS011;18022;45.492;11.548;2022-10-31T05:33:42;38.60;;;13.25;;
31390;SDS011;18022;45.492;11.548;2022-10-31T05:36:08;12.60;;;11.30;;
31390;SDS011;18022;45.492;11.548;2022-10-31T05:38:33;12.63;;;10.98;;
31390;SDS011;18022;45.492;11.548;2022-10-31T05:40:59;13.63;;;11.13;;
31390;SDS011;18022;45.492;11.548;2022-10-31T05:43:26;13.18;;;11.77;;
31390;SDS011;18022;45.492;11.548;2022-10-31T05:45:55;11.52;;;10.32;;
31390;SDS011;18022;45.492;11.548;2022-10-31T05:48:21;10.57;;;9.57;;
31390;SDS011;18022;45.492;11.548;2022-10-31T05:50:48;9.68;;;8.82;;
31390;SDS011;18022;45.492;11.548;2022-10-31T05:53:14;9.48;;;8.55;;
31390;SDS011;18022;45.492;11.548;2022-10-31T05:55:41;9.05;;;8.35;;
31390;SDS011;18022;45.492;11.548;2022-10-31T05:58:07;11.13;;;9.25;;
31390;SDS011;18022;45.492;11.548;2022-10-31T06:00:33;16.98;;;12.63;;
31390;SDS011;18022;45.492;11.548;2022-10-31T06:03:04;21.92;;;13.05;;
31390;SDS011;18022;45.492;11.548;2022-10-31T06:05:31;16.30;;;13.27;;
31390;SDS011;18022;45.492;11.548;2022-10-31T06:07:57;12.63;;;11.32;;
31390;SDS011;18022;45.492;11.548;2022-10-31T06:10:23;15.02;;;11.05;;
31390;SDS011;18022;45.492;11.548;2022-10-31T06:12:49;13.90;;;10.38;;
31390;SDS011;18022;45.492;11.548;2022-10-31T06:15:15;13.63;;;10.00;;
31390;SDS011;18022;45.492;11.548;2022-10-31T06:17:41;10.80;;;9.70;;
31390;SDS011;18022;45.492;11.548;2022-10-31T06:20:07;12.18;;;10.23;;
31390;SDS011;18022;45.492;11.548;2022-10-31T06:22:33;14.02;;;10.45;;
31390;SDS011;18022;45.492;11.548;2022-10-31T06:24:59;14.35;;;11.68;;
31390;SDS011;18022;45.492;11.548;2022-10-31T06:27:25;16.17;;;12.43;;
31390;SDS011;18022;45.492;11.548;2022-10-31T06:29:51;16.88;;;12.82;;
31390;SDS011;18022;45.492;11.548;2022-10-31T06:32:17;18.67;;;12.88;;
31390;SDS011;18022;45.492;11.548;2022-10-31T06:34:43;24.50;;;15.57;;
31390;SDS011;18022;45.492;11.548;2022-10-31T06:37:09;19.13;;;13.80;;
31390;SDS011;18022;45.492;11.548;2022-10-31T06:39:36;18.40;;;13.80;;
31390;SDS011;18022;45.492;11.548;2022-10-31T06:42:02;12.88;;;11.15;;
31390;SDS011;18022;45.492;11.548;2022-10-31T06:44:29;11.82;;;10.57;;
31390;SDS011;18022;45.492;11.548;2022-10-31T06:46:55;12.43;;;11.20;;
31390;SDS011;18022;45.492;11.548;2022-10-31T06:49:21;11.73;;;10.07;;
31390;SDS011;18022;45.492;11.548;2022-10-31T06:51:47;10.95;;;10.02;;
31390;SDS011;18022;45.492;11.548;2022-10-31T06:54:13;10.32;;;9.30;;
31390;SDS011;18022;45.492;11.548;2022-10-31T06:56:38;13.32;;;10.68;;
31390;SDS011;18022;45.492;11.548;2022-10-31T06:59:04;14.48;;;9.68;;
31390;SDS011;18022;45.492;11.548;2022-10-31T07:01:30;11.75;;;9.60;;
31390;SDS011;18022;45.492;11.548;2022-10-31T07:03:56;9.70;;;8.90;;
31390;SDS011;18022;45.492;11.548;2022-10-31T07:06:21;10.50;;;9.50;;
31390;SDS011;18022;45.492;11.548;2022-10-31T07:08:47;9.75;;;8.95;;
31390;SDS011;18022;45.492;11.548;2022-10-31T07:11:13;8.85;;;8.15;;
31390;SDS011;18022;45.492;11.548;2022-10-31T07:13:38;9.88;;;8.90;;
31390;SDS011;18022;45.492;11.548;2022-10-31T07:16:04;8.85;;;8.05;;
31390;SDS011;18022;45.492;11.548;2022-10-31T07:18:35;11.70;;;9.70;;
31390;SDS011;18022;45.492;11.548;2022-10-31T07:21:01;18.73;;;12.52;;
31390;SDS011;18022;45.492;11.548;2022-10-31T07:23:27;15.63;;;12.38;;
31390;SDS011;18022;45.492;11.548;2022-10-31T07:25:56;22.65;;;13.65;;
31390;SDS011;18022;45.492;11.548;2022-10-31T07:28:22;16.88;;;12.68;;
31390;SDS011;18022;45.492;11.548;2022-10-31T07:30:52;13.55;;;12.18;;
31390;SDS011;18022;45.492;11.548;2022-10-31T07:33:18;14.30;;;12.43;;
31390;SDS011;18022;45.492;11.548;2022-10-31T07:35:44;13.80;;;11.48;;
31390;SDS011;18022;45.492;11.548;2022-10-31T07:38:11;17.42;;;13.55;;
31390;SDS011;18022;45.492;11.548;2022-10-31T07:40:38;24.73;;;16.48;;
31390;SDS011;18022;45.492;11.548;2022-10-31T07:43:05;23.33;;;15.55;;
31390;SDS011;18022;45.492;11.548;2022-10-31T07:45:31;23.83;;;15.95;;
31390;SDS011;18022;45.492;11.548;2022-10-31T07:47:57;26.63;;;17.15;;
31390;SDS011;18022;45.492;11.548;2022-10-31T07:50:23;23.33;;;16.40;;
31390;SDS011;18022;45.492;11.548;2022-10-31T07:55:32;24.50;;;16.35;;
31390;SDS011;18022;45.492;11.548;2022-10-31T07:58:02;28.65;;;17.50;;
31390;SDS011;18022;45.492;11.548;2022-10-31T08:00:29;25.85;;;17.48;;
31390;SDS011;18022;45.492;11.548;2022-10-31T08:03:03;28.92;;;17.38;;
31390;SDS011;18022;45.492;11.548;2022-10-31T08:05:34;27.13;;;17.92;;
31390;SDS011;18022;45.492;11.548;2022-10-31T08:08:00;28.92;;;17.50;;
31390;SDS011;18022;45.492;11.548;2022-10-31T08:10:26;25.27;;;16.85;;
31390;SDS011;18022;45.492;11.548;2022-10-31T08:13:00;26.77;;;17.58;;
31390;SDS011;18022;45.492;11.548;2022-10-31T08:15:28;31.17;;;17.85;;
31390;SDS011;18022;45.492;11.548;2022-10-31T08:17:54;28.85;;;18.55;;
31390;SDS011;18022;45.492;11.548;2022-10-31T08:20:20;35.97;;;20.00;;
31390;SDS011;18022;45.492;11.548;2022-10-31T08:22:53;39.78;;;21.05;;
31390;SDS011;18022;45.492;11.548;2022-10-31T08:25:28;35.58;;;21.55;;
31390;SDS011;18022;45.492;11.548;2022-10-31T08:27:56;35.78;;;22.33;;
31390;SDS011;18022;45.492;11.548;2022-10-31T08:30:22;47.65;;;22.67;;
31390;SDS011;18022;45.492;11.548;2022-10-31T08:35:27;46.75;;;23.25;;
31390;SDS011;18022;45.492;11.548;2022-10-31T08:37:53;39.08;;;22.38;;
31390;SDS011;18022;45.492;11.548;2022-10-31T08:40:20;42.27;;;22.37;;
31390;SDS011;18022;45.492;11.548;2022-10-31T08:42:46;40.80;;;23.95;;
31390;SDS011;18022;45.492;11.548;2022-10-31T08:45:12;41.75;;;22.55;;
31390;SDS011;18022;45.492;11.548;2022-10-31T08:47:37;45.45;;;23.95;;
31390;SDS011;18022;45.492;11.548;2022-10-31T08:50:03;43.22;;;23.65;;
31390;SDS011;18022;45.492;11.548;2022-10-31T08:52:29;50.88;;;24.60;;
31390;SDS011;18022;45.492;11.548;2022-10-31T08:54:55;46.10;;;23.92;;
31390;SDS011;18022;45.492;11.548;2022-10-31T08:57:21;48.03;;;24.02;;
31390;SDS011;18022;45.492;11.548;2022-10-31T08:59:46;46.42;;;23.73;;
31390;SDS011;18022;45.492;11.548;2022-10-31T09:02:12;46.63;;;24.95;;
31390;SDS011;18022;45.492;11.548;2022-10-31T09:04:38;49.80;;;25.80;;
31390;SDS011;18022;45.492;11.548;2022-10-31T09:07:03;42.42;;;24.48;;
31390;SDS011;18022;45.492;11.548;2022-10-31T09:09:29;42.15;;;22.95;;
31390;SDS011;18022;45.492;11.548;2022-10-31T09:11:55;34.60;;;20.15;;
31390;SDS011;18022;45.492;11.548;2022-10-31T09:14:20;28.30;;;16.85;;
31390;SDS011;18022;45.492;11.548;2022-10-31T09:16:46;27.30;;;14.77;;
31390;SDS011;18022;45.492;11.548;2022-10-31T09:19:11;24.83;;;13.98;;
31390;SDS011;18022;45.492;11.548;2022-10-31T09:21:37;29.65;;;13.60;;
31390;SDS011;18022;45.492;11.548;2022-10-31T09:24:03;26.35;;;12.77;;
31390;SDS011;18022;45.492;11.548;2022-10-31T09:26:28;24.60;;;11.40;;
31390;SDS011;18022;45.492;11.548;2022-10-31T09:28:55;22.13;;;11.63;;
31390;SDS011;18022;45.492;11.548;2022-10-31T09:31:22;22.58;;;12.45;;
31390;SDS011;18022;45.492;11.548;2022-10-31T09:33:48;24.40;;;11.65;;
31390;SDS011;18022;45.492;11.548;2022-10-31T09:36:13;24.17;;;10.60;;
31390;SDS011;18022;45.492;11.548;2022-10-31T09:38:39;23.92;;;12.00;;
31390;SDS011;18022;45.492;11.548;2022-10-31T09:44:03;23.98;;;10.43;;
31390;SDS011;18022;45.492;11.548;2022-10-31T09:52:26;22.55;;;10.43;;
31390;SDS011;18022;45.492;11.548;2022-10-31T09:55:03;26.77;;;11.30;;
31390;SDS011;18022;45.492;11.548;2022-10-31T09:57:42;21.50;;;9.85;;
31390;SDS011;18022;45.492;11.548;2022-10-31T10:00:18;25.67;;;10.85;;
31390;SDS011;18022;45.492;11.548;2022-10-31T10:05:12;16.08;;;7.78;;
31390;SDS011;18022;45.492;11.548;2022-10-31T10:07:52;29.45;;;11.43;;
31390;SDS011;18022;45.492;11.548;2022-10-31T10:10:25;22.05;;;12.98;;
31390;SDS011;18022;45.492;11.548;2022-10-31T10:23:35;33.80;;;15.52;;
31390;SDS011;18022;45.492;11.548;2022-10-31T10:26:15;29.50;;;16.52;;
31390;SDS011;18022;45.492;11.548;2022-10-31T10:28:48;20.90;;;11.15;;
31390;SDS011;18022;45.492;11.548;2022-10-31T10:31:20;28.60;;;15.07;;
31390;SDS011;18022;45.492;11.548;2022-10-31T10:36:28;33.95;;;19.60;;
31390;SDS011;18022;45.492;11.548;2022-10-31T10:39:27;30.98;;;15.60;;
31390;SDS011;18022;45.492;11.548;2022-10-31T10:41:58;38.60;;;17.83;;
31390;SDS011;18022;45.492;11.548;2022-10-31T10:44:48;31.15;;;17.67;;
31390;SDS011;18022;45.492;11.548;2022-10-31T10:47:40;30.98;;;17.08;;
31390;SDS011;18022;45.492;11.548;2022-10-31T10:50:16;31.25;;;16.90;;
31390;SDS011;18022;45.492;11.548;2022-10-31T10:58:37;36.45;;;19.33;;
31390;SDS011;18022;45.492;11.548;2022-10-31T11:01:10;29.98;;;16.05;;
31390;SDS011;18022;45.492;11.548;2022-10-31T11:03:37;38.38;;;18.42;;
31390;SDS011;18022;45.492;11.548;2022-10-31T11:06:15;28.92;;;15.85;;
31390;SDS011;18022;45.492;11.548;2022-10-31T11:08:42;25.02;;;12.60;;
31390;SDS011;18022;45.492;11.548;2022-10-31T11:13:55;30.08;;;14.75;;
31390;SDS011;18022;45.492;11.548;2022-10-31T11:16:28;31.00;;;14.77;;
31390;SDS011;18022;45.492;11.548;2022-10-31T11:21:52;38.67;;;18.90;;
31390;SDS011;18022;45.492;11.548;2022-10-31T11:24:19;38.00;;;18.98;;
31390;SDS011;18022;45.492;11.548;2022-10-31T11:26:47;36.83;;;19.25;;
31390;SDS011;18022;45.492;11.548;2022-10-31T11:31:50;42.63;;;21.83;;
31390;SDS011;18022;45.492;11.548;2022-10-31T11:34:34;41.00;;;22.70;;
31390;SDS011;18022;45.492;11.548;2022-10-31T11:37:22;41.20;;;24.60;;
31390;SDS011;18022;45.492;11.548;2022-10-31T11:39:55;40.15;;;24.50;;
31390;SDS011;18022;45.492;11.548;2022-10-31T11:42:25;44.45;;;26.52;;
31390;SDS011;18022;45.492;11.548;2022-10-31T11:45:00;47.92;;;25.88;;
31390;SDS011;18022;45.492;11.548;2022-10-31T11:47:32;44.35;;;26.92;;
31390;SDS011;18022;45.492;11.548;2022-10-31T11:50:00;50.63;;;29.05;;
31390;SDS011;18022;45.492;11.548;2022-10-31T11:52:33;55.90;;;27.70;;
31390;SDS011;18022;45.492;11.548;2022-10-31T11:57:48;48.17;;;27.08;;
31390;SDS011;18022;45.492;11.548;2022-10-31T12:05:49;47.70;;;27.15;;
31390;SDS011;18022;45.492;11.548;2022-10-31T12:08:32;47.35;;;26.77;;
31390;SDS011;18022;45.492;11.548;2022-10-31T12:11:30;46.67;;;27.20;;
31390;SDS011;18022;45.492;11.548;2022-10-31T12:16:34;46.88;;;26.17;;
31390;SDS011;18022;45.492;11.548;2022-10-31T12:28:04;41.70;;;24.60;;
31390;SDS011;18022;45.492;11.548;2022-10-31T12:42:16;38.50;;;22.35;;
31390;SDS011;18022;45.492;11.548;2022-10-31T12:47:51;41.42;;;23.63;;
31390;SDS011;18022;45.492;11.548;2022-10-31T12:59:04;44.25;;;23.50;;
31390;SDS011;18022;45.492;11.548;2022-10-31T13:01:34;38.33;;;23.63;;
31390;SDS011;18022;45.492;11.548;2022-10-31T13:06:38;37.88;;;21.55;;
31390;SDS011;18022;45.492;11.548;2022-10-31T13:09:11;41.60;;;22.30;;
31390;SDS011;18022;45.492;11.548;2022-10-31T13:16:46;38.67;;;22.60;;
31390;SDS011;18022;45.492;11.548;2022-10-31T13:21:54;37.15;;;20.73;;
31390;SDS011;18022;45.492;11.548;2022-10-31T13:24:36;39.05;;;21.33;;
31390;SDS011;18022;45.492;11.548;2022-10-31T13:27:12;39.33;;;21.05;;
31390;SDS011;18022;45.492;11.548;2022-10-31T13:29:54;40.95;;;22.80;;
31390;SDS011;18022;45.492;11.548;2022-10-31T13:32:22;42.33;;;23.15;;
31390;SDS011;18022;45.492;11.548;2022-10-31T13:34:55;35.28;;;20.02;;
31390;SDS011;18022;45.492;11.548;2022-10-31T13:45:19;39.80;;;23.73;;
31390;SDS011;18022;45.492;11.548;2022-10-31T13:50:41;50.22;;;25.92;;
31390;SDS011;18022;45.492;11.548;2022-10-31T13:53:12;62.08;;;35.90;;
31390;SDS011;18022;45.492;11.548;2022-10-31T13:55:46;49.65;;;29.88;;
31390;SDS011;18022;45.492;11.548;2022-10-31T13:58:21;47.05;;;27.70;;
31390;SDS011;18022;45.492;11.548;2022-10-31T14:00:59;53.92;;;26.52;;
31390;SDS011;18022;45.492;11.548;2022-10-31T14:03:25;45.03;;;25.90;;
31390;SDS011;18022;45.492;11.548;2022-10-31T14:05:51;44.67;;;25.83;;
31390;SDS011;18022;45.492;11.548;2022-10-31T14:08:19;43.00;;;25.13;;
31390;SDS011;18022;45.492;11.548;2022-10-31T14:10:49;43.35;;;25.10;;
31390;SDS011;18022;45.492;11.548;2022-10-31T14:13:26;46.55;;;26.05;;
31390;SDS011;18022;45.492;11.548;2022-10-31T14:16:06;41.58;;;23.55;;
31390;SDS011;18022;45.492;11.548;2022-10-31T14:19:03;41.38;;;25.40;;
31390;SDS011;18022;45.492;11.548;2022-10-31T14:21:36;45.05;;;25.38;;
31390;SDS011;18022;45.492;11.548;2022-10-31T14:26:52;38.33;;;23.63;;
31390;SDS011;18022;45.492;11.548;2022-10-31T14:29:21;38.63;;;23.35;;
31390;SDS011;18022;45.492;11.548;2022-10-31T14:34:42;41.80;;;22.75;;
31390;SDS011;18022;45.492;11.548;2022-10-31T14:37:30;41.20;;;24.55;;
31390;SDS011;18022;45.492;11.548;2022-10-31T14:40:35;47.63;;;24.10;;
31390;SDS011;18022;45.492;11.548;2022-10-31T14:51:19;45.70;;;23.58;;
31390;SDS011;18022;45.492;11.548;2022-10-31T14:53:53;41.42;;;22.42;;
31390;SDS011;18022;45.492;11.548;2022-10-31T14:56:31;40.60;;;23.02;;
31390;SDS011;18022;45.492;11.548;2022-10-31T14:59:00;40.60;;;22.52;;
31390;SDS011;18022;45.492;11.548;2022-10-31T15:01:35;36.30;;;22.70;;
31390;SDS011;18022;45.492;11.548;2022-10-31T15:04:11;38.15;;;21.38;;
31390;SDS011;18022;45.492;11.548;2022-10-31T15:06:42;42.85;;;20.80;;
31390;SDS011;18022;45.492;11.548;2022-10-31T15:09:24;35.80;;;20.02;;
31390;SDS011;18022;45.492;11.548;2022-10-31T15:11:55;31.55;;;16.98;;
31390;SDS011;18022;45.492;11.548;2022-10-31T15:16:56;26.25;;;12.68;;
31390;SDS011;18022;45.492;11.548;2022-10-31T15:19:24;25.27;;;12.80;;
31390;SDS011;18022;45.492;11.548;2022-10-31T15:21:52;28.52;;;13.10;;
31390;SDS011;18022;45.492;11.548;2022-10-31T15:24:19;20.83;;;11.73;;
31390;SDS011;18022;45.492;11.548;2022-10-31T15:26:48;28.08;;;12.25;;
31390;SDS011;18022;45.492;11.548;2022-10-31T15:29:21;28.77;;;10.98;;
31390;SDS011;18022;45.492;11.548;2022-10-31T15:34:56;22.60;;;10.18;;
31390;SDS011;18022;45.492;11.548;2022-10-31T15:37:19;21.45;;;10.57;;
31390;SDS011;18022;45.492;11.548;2022-10-31T15:39:47;25.15;;;11.82;;
31390;SDS011;18022;45.492;11.548;2022-10-31T15:42:16;19.23;;;10.35;;
31390;SDS011;18022;45.492;11.548;2022-10-31T15:44:47;21.55;;;9.75;;
31390;SDS011;18022;45.492;11.548;2022-10-31T15:47:18;21.50;;;9.77;;
31390;SDS011;18022;45.492;11.548;2022-10-31T15:49:53;23.52;;;10.90;;
31390;SDS011;18022;45.492;11.548;2022-10-31T15:52:29;18.27;;;10.50;;
31390;SDS011;18022;45.492;11.548;2022-10-31T15:55:04;28.25;;;11.00;;
31390;SDS011;18022;45.492;11.548;2022-10-31T15:57:47;23.88;;;10.65;;
31390;SDS011;18022;45.492;11.548;2022-10-31T16:08:35;20.02;;;10.85;;
31390;SDS011;18022;45.492;11.548;2022-10-31T16:13:51;17.58;;;9.88;;
31390;SDS011;18022;45.492;11.548;2022-10-31T16:16:22;16.58;;;9.23;;
31390;SDS011;18022;45.492;11.548;2022-10-31T16:18:49;17.33;;;9.68;;
31390;SDS011;18022;45.492;11.548;2022-10-31T16:21:24;23.60;;;10.73;;
31390;SDS011;18022;45.492;11.548;2022-10-31T16:23:57;20.27;;;10.48;;
31390;SDS011;18022;45.492;11.548;2022-10-31T16:26:29;20.88;;;10.73;;
31390;SDS011;18022;45.492;11.548;2022-10-31T16:28:56;20.17;;;9.73;;
31390;SDS011;18022;45.492;11.548;2022-10-31T16:31:36;25.48;;;10.27;;
31390;SDS011;18022;45.492;11.548;2022-10-31T16:34:13;23.75;;;10.13;;
31390;SDS011;18022;45.492;11.548;2022-10-31T16:36:42;22.83;;;10.55;;
31390;SDS011;18022;45.492;11.548;2022-10-31T16:39:08;25.48;;;10.70;;
31390;SDS011;18022;45.492;11.548;2022-10-31T16:41:35;21.70;;;10.98;;
31390;SDS011;18022;45.492;11.548;2022-10-31T16:44:04;22.88;;;11.05;;
31390;SDS011;18022;45.492;11.548;2022-10-31T16:46:39;23.23;;;11.25;;
31390;SDS011;18022;45.492;11.548;2022-10-31T16:49:04;27.42;;;11.65;;
31390;SDS011;18022;45.492;11.548;2022-10-31T16:51:32;24.00;;;12.38;;
31390;SDS011;18022;45.492;11.548;2022-10-31T16:53:58;22.63;;;10.98;;
31390;SDS011;18022;45.492;11.548;2022-10-31T16:56:26;23.35;;;10.93;;
31390;SDS011;18022;45.492;11.548;2022-10-31T16:58:54;25.02;;;11.57;;
31390;SDS011;18022;45.492;11.548;2022-10-31T17:01:20;22.48;;;11.20;;
31390;SDS011;18022;45.492;11.548;2022-10-31T17:03:46;22.95;;;12.07;;
31390;SDS011;18022;45.492;11.548;2022-10-31T17:06:12;28.35;;;13.32;;
31390;SDS011;18022;45.492;11.548;2022-10-31T17:08:39;28.20;;;12.73;;
31390;SDS011;18022;45.492;11.548;2022-10-31T17:11:05;20.88;;;12.50;;
31390;SDS011;18022;45.492;11.548;2022-10-31T17:13:33;24.42;;;12.35;;
31390;SDS011;18022;45.492;11.548;2022-10-31T17:15:59;23.05;;;12.00;;
31390;SDS011;18022;45.492;11.548;2022-10-31T17:18:27;20.85;;;11.05;;
31390;SDS011;18022;45.492;11.548;2022-10-31T17:21:00;28.60;;;11.65;;
31390;SDS011;18022;45.492;11.548;2022-10-31T17:23:27;17.02;;;9.95;;
31390;SDS011;18022;45.492;11.548;2022-10-31T17:25:54;23.10;;;11.75;;
31390;SDS011;18022;45.492;11.548;2022-10-31T17:28:20;19.83;;;11.05;;
31390;SDS011;18022;45.492;11.548;2022-10-31T17:30:46;18.77;;;11.27;;
31390;SDS011;18022;45.492;11.548;2022-10-31T17:33:12;30.67;;;11.68;;
31390;SDS011;18022;45.492;11.548;2022-10-31T17:35:39;20.52;;;11.35;;
31390;SDS011;18022;45.492;11.548;2022-10-31T17:38:06;21.13;;;10.77;;
31390;SDS011;18022;45.492;11.548;2022-10-31T17:40:31;24.70;;;11.95;;